sensor_id;sensor_type;location;lat;lon;timestamp;P1;durP1;ratioP1;P2;durP2;ratioP2
16460;SDS011;8341;42.048;24.650;2022-08-21T00:00:04;13.40;;;7.60;;
16460;SDS011;8341;42.048;24.650;2022-08-21T00:02:34;10.77;;;7.45;;
16460;SDS011;8341;42.048;24.650;2022-08-21T00:05:01;13.20;;;8.05;;
16460;SDS011;8341;42.048;24.650;2022-08-21T00:07:31;11.55;;;8.02;;
16460;SDS011;8341;42.048;24.650;2022-08-21T00:09:58;11.52;;;8.00;;
16460;SDS011;8341;42.048;24.650;2022-08-21T00:12:24;10.80;;;6.90;;
16460;SDS011;8341;42.048;24.650;2022-08-21T00:14:52;12.55;;;7.93;;
16460;SDS011;8341;42.048;24.650;2022-08-21T00:17:19;12.40;;;7.45;;
16460;SDS011;8341;42.048;24.650;2022-08-21T00:19:47;14.05;;;7.80;;
16460;SDS011;8341;42.048;24.650;2022-08-21T00:22:14;13.02;;;7.07;;
16460;SDS011;8341;42.048;24.650;2022-08-21T00:24:43;13.00;;;7.28;;
16460;SDS011;8341;42.048;24.650;2022-08-21T00:27:10;11.95;;;7.00;;
16460;SDS011;8341;42.048;24.650;2022-08-21T00:29:37;12.05;;;6.90;;
16460;SDS011;8341;42.048;24.650;2022-08-21T00:32:04;10.15;;;6.90;;
16460;SDS011;8341;42.048;24.650;2022-08-21T00:34:30;11.15;;;7.15;;
16460;SDS011;8341;42.048;24.650;2022-08-21T00:36:58;13.02;;;7.00;;
16460;SDS011;8341;42.048;24.650;2022-08-21T00:39:24;11.10;;;6.57;;
16460;SDS011;8341;42.048;24.650;2022-08-21T00:41:53;12.25;;;7.03;;
16460;SDS011;8341;42.048;24.650;2022-08-21T00:44:19;9.80;;;6.38;;
16460;SDS011;8341;42.048;24.650;2022-08-21T00:46:46;9.23;;;6.88;;
16460;SDS011;8341;42.048;24.650;2022-08-21T00:49:13;8.98;;;7.07;;
16460;SDS011;8341;42.048;24.650;2022-08-21T00:51:42;9.60;;;6.32;;
16460;SDS011;8341;42.048;24.650;2022-08-21T00:54:16;8.32;;;6.50;;
16460;SDS011;8341;42.048;24.650;2022-08-21T00:56:43;11.07;;;6.78;;
16460;SDS011;8341;42.048;24.650;2022-08-21T00:59:12;8.68;;;6.95;;
16460;SDS011;8341;42.048;24.650;2022-08-21T01:01:39;10.25;;;6.32;;
16460;SDS011;8341;42.048;24.650;2022-08-21T01:04:06;10.30;;;7.43;;
16460;SDS011;8341;42.048;24.650;2022-08-21T01:06:33;9.30;;;6.85;;
16460;SDS011;8341;42.048;24.650;2022-08-21T01:09:00;11.30;;;6.82;;
16460;SDS011;8341;42.048;24.650;2022-08-21T01:11:27;10.10;;;6.22;;
16460;SDS011;8341;42.048;24.650;2022-08-21T01:13:54;15.85;;;7.10;;
16460;SDS011;8341;42.048;24.650;2022-08-21T01:16:22;13.40;;;7.57;;
16460;SDS011;8341;42.048;24.650;2022-08-21T01:18:49;12.95;;;7.18;;
16460;SDS011;8341;42.048;24.650;2022-08-21T01:21:19;10.73;;;7.55;;
16460;SDS011;8341;42.048;24.650;2022-08-21T01:23:49;9.32;;;6.97;;
16460;SDS011;8341;42.048;24.650;2022-08-21T01:26:20;9.60;;;6.88;;
16460;SDS011;8341;42.048;24.650;2022-08-21T01:28:50;11.18;;;7.22;;
16460;SDS011;8341;42.048;24.650;2022-08-21T01:31:21;12.73;;;7.28;;
16460;SDS011;8341;42.048;24.650;2022-08-21T01:33:49;10.98;;;6.80;;
16460;SDS011;8341;42.048;24.650;2022-08-21T01:36:16;11.32;;;6.72;;
16460;SDS011;8341;42.048;24.650;2022-08-21T01:38:45;11.23;;;6.68;;
16460;SDS011;8341;42.048;24.650;2022-08-21T01:41:12;12.05;;;6.90;;
16460;SDS011;8341;42.048;24.650;2022-08-21T01:43:39;14.35;;;6.68;;
16460;SDS011;8341;42.048;24.650;2022-08-21T01:46:06;12.43;;;7.22;;
16460;SDS011;8341;42.048;24.650;2022-08-21T01:48:33;9.50;;;6.75;;
16460;SDS011;8341;42.048;24.650;2022-08-21T01:51:01;12.15;;;6.72;;
16460;SDS011;8341;42.048;24.650;2022-08-21T01:53:27;9.48;;;6.43;;
16460;SDS011;8341;42.048;24.650;2022-08-21T01:55:56;9.65;;;6.97;;
16460;SDS011;8341;42.048;24.650;2022-08-21T01:58:23;11.25;;;7.10;;
16460;SDS011;8341;42.048;24.650;2022-08-21T02:00:49;11.35;;;7.30;;
16460;SDS011;8341;42.048;24.650;2022-08-21T02:03:16;10.25;;;7.53;;
16460;SDS011;8341;42.048;24.650;2022-08-21T02:05:43;14.45;;;7.80;;
16460;SDS011;8341;42.048;24.650;2022-08-21T02:08:10;12.60;;;8.20;;
16460;SDS011;8341;42.048;24.650;2022-08-21T02:10:37;12.20;;;7.93;;
16460;SDS011;8341;42.048;24.650;2022-08-21T02:13:07;11.32;;;8.25;;
16460;SDS011;8341;42.048;24.650;2022-08-21T02:15:34;11.65;;;7.78;;
16460;SDS011;8341;42.048;24.650;2022-08-21T02:18:02;10.75;;;7.78;;
16460;SDS011;8341;42.048;24.650;2022-08-21T02:20:32;12.77;;;8.10;;
16460;SDS011;8341;42.048;24.650;2022-08-21T02:23:00;12.55;;;7.57;;
16460;SDS011;8341;42.048;24.650;2022-08-21T02:25:29;12.52;;;8.07;;
16460;SDS011;8341;42.048;24.650;2022-08-21T02:27:56;10.40;;;7.93;;
16460;SDS011;8341;42.048;24.650;2022-08-21T02:30:26;11.18;;;7.05;;
16460;SDS011;8341;42.048;24.650;2022-08-21T02:32:54;13.95;;;7.25;;
16460;SDS011;8341;42.048;24.650;2022-08-21T02:35:22;11.13;;;6.97;;
16460;SDS011;8341;42.048;24.650;2022-08-21T02:37:50;10.73;;;7.18;;
16460;SDS011;8341;42.048;24.650;2022-08-21T02:40:20;10.32;;;6.82;;
16460;SDS011;8341;42.048;24.650;2022-08-21T02:42:49;12.48;;;7.85;;
16460;SDS011;8341;42.048;24.650;2022-08-21T02:45:16;8.68;;;6.82;;
16460;SDS011;8341;42.048;24.650;2022-08-21T02:47:48;12.05;;;7.05;;
16460;SDS011;8341;42.048;24.650;2022-08-21T02:50:17;8.70;;;6.63;;
16460;SDS011;8341;42.048;24.650;2022-08-21T02:52:47;8.88;;;7.20;;
16460;SDS011;8341;42.048;24.650;2022-08-21T02:55:14;11.55;;;7.13;;
16460;SDS011;8341;42.048;24.650;2022-08-21T02:57:41;13.40;;;7.13;;
16460;SDS011;8341;42.048;24.650;2022-08-21T03:00:09;8.98;;;6.93;;
16460;SDS011;8341;42.048;24.650;2022-08-21T03:02:37;8.27;;;6.97;;
16460;SDS011;8341;42.048;24.650;2022-08-21T03:05:06;10.07;;;7.63;;
16460;SDS011;8341;42.048;24.650;2022-08-21T03:07:36;11.30;;;7.25;;
16460;SDS011;8341;42.048;24.650;2022-08-21T03:10:04;13.73;;;7.57;;
16460;SDS011;8341;42.048;24.650;2022-08-21T03:12:31;13.93;;;7.25;;
16460;SDS011;8341;42.048;24.650;2022-08-21T03:15:00;13.13;;;6.72;;
16460;SDS011;8341;42.048;24.650;2022-08-21T03:17:27;9.10;;;6.40;;
16460;SDS011;8341;42.048;24.650;2022-08-21T03:19:54;10.20;;;6.80;;
16460;SDS011;8341;42.048;24.650;2022-08-21T03:22:22;18.30;;;7.60;;
16460;SDS011;8341;42.048;24.650;2022-08-21T03:24:49;11.90;;;7.00;;
16460;SDS011;8341;42.048;24.650;2022-08-21T03:27:16;10.00;;;6.95;;
16460;SDS011;8341;42.048;24.650;2022-08-21T03:29:43;9.93;;;6.70;;
16460;SDS011;8341;42.048;24.650;2022-08-21T03:32:10;11.88;;;7.25;;
16460;SDS011;8341;42.048;24.650;2022-08-21T03:34:37;9.82;;;6.70;;
16460;SDS011;8341;42.048;24.650;2022-08-21T03:37:05;9.95;;;6.47;;
16460;SDS011;8341;42.048;24.650;2022-08-21T03:39:34;13.02;;;7.07;;
16460;SDS011;8341;42.048;24.650;2022-08-21T03:42:01;10.52;;;7.25;;
16460;SDS011;8341;42.048;24.650;2022-08-21T03:44:30;12.48;;;7.05;;
16460;SDS011;8341;42.048;24.650;2022-08-21T03:46:57;13.48;;;7.05;;
16460;SDS011;8341;42.048;24.650;2022-08-21T03:49:24;11.35;;;7.40;;
16460;SDS011;8341;42.048;24.650;2022-08-21T03:51:52;9.05;;;7.20;;
16460;SDS011;8341;42.048;24.650;2022-08-21T03:54:18;11.73;;;7.68;;
16460;SDS011;8341;42.048;24.650;2022-08-21T03:56:47;9.95;;;7.97;;
16460;SDS011;8341;42.048;24.650;2022-08-21T03:59:14;11.25;;;8.05;;
16460;SDS011;8341;42.048;24.650;2022-08-21T04:01:50;11.63;;;8.18;;
16460;SDS011;8341;42.048;24.650;2022-08-21T04:04:18;13.75;;;8.48;;
16460;SDS011;8341;42.048;24.650;2022-08-21T04:06:45;13.18;;;8.43;;
16460;SDS011;8341;42.048;24.650;2022-08-21T04:09:12;11.35;;;8.18;;
16460;SDS011;8341;42.048;24.650;2022-08-21T04:11:38;10.77;;;8.23;;
16460;SDS011;8341;42.048;24.650;2022-08-21T04:14:07;13.13;;;7.95;;
16460;SDS011;8341;42.048;24.650;2022-08-21T04:16:33;11.20;;;7.65;;
16460;SDS011;8341;42.048;24.650;2022-08-21T04:19:00;9.93;;;7.97;;
16460;SDS011;8341;42.048;24.650;2022-08-21T04:21:27;12.73;;;7.72;;
16460;SDS011;8341;42.048;24.650;2022-08-21T04:23:54;13.95;;;7.60;;
16460;SDS011;8341;42.048;24.650;2022-08-21T04:26:22;9.32;;;6.90;;
16460;SDS011;8341;42.048;24.650;2022-08-21T04:28:49;13.30;;;6.95;;
16460;SDS011;8341;42.048;24.650;2022-08-21T04:31:17;11.02;;;7.10;;
16460;SDS011;8341;42.048;24.650;2022-08-21T04:33:44;10.90;;;6.65;;
16460;SDS011;8341;42.048;24.650;2022-08-21T04:36:11;11.38;;;8.70;;
16460;SDS011;8341;42.048;24.650;2022-08-21T04:38:38;28.08;;;18.75;;
16460;SDS011;8341;42.048;24.650;2022-08-21T04:41:04;10.43;;;6.60;;
16460;SDS011;8341;42.048;24.650;2022-08-21T04:43:31;10.90;;;7.10;;
16460;SDS011;8341;42.048;24.650;2022-08-21T04:45:58;26.23;;;20.30;;
16460;SDS011;8341;42.048;24.650;2022-08-21T04:48:27;20.58;;;17.58;;
16460;SDS011;8341;42.048;24.650;2022-08-21T04:50:54;15.93;;;11.05;;
16460;SDS011;8341;42.048;24.650;2022-08-21T04:53:26;11.70;;;7.25;;
16460;SDS011;8341;42.048;24.650;2022-08-21T04:55:58;11.23;;;6.97;;
16460;SDS011;8341;42.048;24.650;2022-08-21T04:58:29;11.32;;;6.82;;
16460;SDS011;8341;42.048;24.650;2022-08-21T05:00:58;15.82;;;7.50;;
16460;SDS011;8341;42.048;24.650;2022-08-21T05:03:29;12.25;;;7.32;;
16460;SDS011;8341;42.048;24.650;2022-08-21T05:05:59;12.60;;;6.97;;
16460;SDS011;8341;42.048;24.650;2022-08-21T05:08:26;12.38;;;7.28;;
16460;SDS011;8341;42.048;24.650;2022-08-21T05:10:54;11.35;;;7.45;;
16460;SDS011;8341;42.048;24.650;2022-08-21T05:13:21;10.23;;;7.05;;
16460;SDS011;8341;42.048;24.650;2022-08-21T05:15:48;10.65;;;6.80;;
16460;SDS011;8341;42.048;24.650;2022-08-21T05:18:15;10.80;;;7.13;;
16460;SDS011;8341;42.048;24.650;2022-08-21T05:20:43;10.13;;;7.13;;
16460;SDS011;8341;42.048;24.650;2022-08-21T05:23:12;10.98;;;7.80;;
16460;SDS011;8341;42.048;24.650;2022-08-21T05:25:40;9.05;;;7.35;;
16460;SDS011;8341;42.048;24.650;2022-08-21T05:28:08;14.52;;;7.90;;
16460;SDS011;8341;42.048;24.650;2022-08-21T05:30:35;10.55;;;7.72;;
16460;SDS011;8341;42.048;24.650;2022-08-21T05:33:03;12.60;;;7.75;;
16460;SDS011;8341;42.048;24.650;2022-08-21T05:35:32;11.63;;;7.80;;
16460;SDS011;8341;42.048;24.650;2022-08-21T05:38:01;12.85;;;8.20;;
16460;SDS011;8341;42.048;24.650;2022-08-21T05:40:28;13.57;;;8.52;;
16460;SDS011;8341;42.048;24.650;2022-08-21T05:42:55;11.77;;;7.80;;
16460;SDS011;8341;42.048;24.650;2022-08-21T05:45:25;11.73;;;8.27;;
16460;SDS011;8341;42.048;24.650;2022-08-21T05:47:53;13.13;;;9.05;;
16460;SDS011;8341;42.048;24.650;2022-08-21T05:50:20;13.90;;;9.20;;
16460;SDS011;8341;42.048;24.650;2022-08-21T05:52:47;14.73;;;9.40;;
16460;SDS011;8341;42.048;24.650;2022-08-21T05:55:16;11.13;;;9.50;;
16460;SDS011;8341;42.048;24.650;2022-08-21T05:57:42;13.73;;;8.75;;
16460;SDS011;8341;42.048;24.650;2022-08-21T06:00:09;10.30;;;7.82;;
16460;SDS011;8341;42.048;24.650;2022-08-21T06:02:37;13.73;;;8.48;;
16460;SDS011;8341;42.048;24.650;2022-08-21T06:05:04;11.02;;;8.20;;
16460;SDS011;8341;42.048;24.650;2022-08-21T06:07:32;12.25;;;8.77;;
16460;SDS011;8341;42.048;24.650;2022-08-21T06:09:59;11.55;;;8.13;;
16460;SDS011;8341;42.048;24.650;2022-08-21T06:12:27;13.00;;;8.75;;
16460;SDS011;8341;42.048;24.650;2022-08-21T06:14:54;11.38;;;7.72;;
16460;SDS011;8341;42.048;24.650;2022-08-21T06:17:21;11.82;;;8.50;;
16460;SDS011;8341;42.048;24.650;2022-08-21T06:19:50;12.88;;;7.63;;
16460;SDS011;8341;42.048;24.650;2022-08-21T06:22:17;10.48;;;7.53;;
16460;SDS011;8341;42.048;24.650;2022-08-21T06:24:44;12.60;;;7.82;;
16460;SDS011;8341;42.048;24.650;2022-08-21T06:27:11;13.45;;;7.68;;
16460;SDS011;8341;42.048;24.650;2022-08-21T06:29:39;11.45;;;7.47;;
16460;SDS011;8341;42.048;24.650;2022-08-21T06:32:06;17.25;;;9.52;;
16460;SDS011;8341;42.048;24.650;2022-08-21T06:34:35;9.68;;;6.68;;
16460;SDS011;8341;42.048;24.650;2022-08-21T06:37:03;11.18;;;6.35;;
16460;SDS011;8341;42.048;24.650;2022-08-21T06:39:30;12.10;;;6.07;;
16460;SDS011;8341;42.048;24.650;2022-08-21T06:41:57;10.90;;;7.38;;
16460;SDS011;8341;42.048;24.650;2022-08-21T06:44:24;13.05;;;6.90;;
16460;SDS011;8341;42.048;24.650;2022-08-21T06:46:53;10.05;;;5.28;;
16460;SDS011;8341;42.048;24.650;2022-08-21T06:49:20;8.65;;;5.80;;
16460;SDS011;8341;42.048;24.650;2022-08-21T06:51:47;8.73;;;5.60;;
16460;SDS011;8341;42.048;24.650;2022-08-21T06:54:13;8.65;;;5.05;;
16460;SDS011;8341;42.048;24.650;2022-08-21T06:56:40;9.63;;;6.18;;
16460;SDS011;8341;42.048;24.650;2022-08-21T06:59:07;12.02;;;6.95;;
16460;SDS011;8341;42.048;24.650;2022-08-21T07:01:34;15.05;;;9.10;;
16460;SDS011;8341;42.048;24.650;2022-08-21T07:04:03;15.50;;;11.27;;
16460;SDS011;8341;42.048;24.650;2022-08-21T07:06:30;20.33;;;13.77;;
16460;SDS011;8341;42.048;24.650;2022-08-21T07:08:57;18.90;;;11.15;;
16460;SDS011;8341;42.048;24.650;2022-08-21T07:11:24;15.73;;;11.68;;
16460;SDS011;8341;42.048;24.650;2022-08-21T07:13:51;12.52;;;7.32;;
16460;SDS011;8341;42.048;24.650;2022-08-21T07:16:19;13.32;;;6.63;;
16460;SDS011;8341;42.048;24.650;2022-08-21T07:18:46;11.65;;;6.43;;
16460;SDS011;8341;42.048;24.650;2022-08-21T07:21:15;10.45;;;7.18;;
16460;SDS011;8341;42.048;24.650;2022-08-21T07:23:44;11.65;;;7.55;;
16460;SDS011;8341;42.048;24.650;2022-08-21T07:26:13;9.43;;;6.78;;
16460;SDS011;8341;42.048;24.650;2022-08-21T07:28:41;9.15;;;6.13;;
16460;SDS011;8341;42.048;24.650;2022-08-21T07:31:08;14.93;;;5.97;;
16460;SDS011;8341;42.048;24.650;2022-08-21T07:33:38;11.70;;;6.32;;
16460;SDS011;8341;42.048;24.650;2022-08-21T07:36:06;11.18;;;6.75;;
16460;SDS011;8341;42.048;24.650;2022-08-21T07:38:34;13.23;;;8.10;;
16460;SDS011;8341;42.048;24.650;2022-08-21T07:41:02;9.73;;;6.82;;
16460;SDS011;8341;42.048;24.650;2022-08-21T07:43:32;12.73;;;8.20;;
16460;SDS011;8341;42.048;24.650;2022-08-21T07:45:59;17.38;;;11.93;;
16460;SDS011;8341;42.048;24.650;2022-08-21T07:48:26;16.27;;;9.57;;
16460;SDS011;8341;42.048;24.650;2022-08-21T07:50:53;15.65;;;9.80;;
16460;SDS011;8341;42.048;24.650;2022-08-21T07:53:20;14.30;;;11.85;;
16460;SDS011;8341;42.048;24.650;2022-08-21T07:55:49;14.05;;;9.00;;
16460;SDS011;8341;42.048;24.650;2022-08-21T07:58:15;15.77;;;9.43;;
16460;SDS011;8341;42.048;24.650;2022-08-21T08:00:42;12.82;;;10.10;;
16460;SDS011;8341;42.048;24.650;2022-08-21T08:03:09;12.73;;;8.77;;
16460;SDS011;8341;42.048;24.650;2022-08-21T08:05:36;13.05;;;9.02;;
16460;SDS011;8341;42.048;24.650;2022-08-21T08:08:04;10.88;;;7.55;;
16460;SDS011;8341;42.048;24.650;2022-08-21T08:10:31;13.00;;;7.82;;
16460;SDS011;8341;42.048;24.650;2022-08-21T08:12:59;11.00;;;6.88;;
16460;SDS011;8341;42.048;24.650;2022-08-21T08:15:26;11.75;;;6.95;;
16460;SDS011;8341;42.048;24.650;2022-08-21T08:17:54;10.20;;;6.10;;
16460;SDS011;8341;42.048;24.650;2022-08-21T08:20:22;9.43;;;6.10;;
16460;SDS011;8341;42.048;24.650;2022-08-21T08:22:51;8.73;;;5.80;;
16460;SDS011;8341;42.048;24.650;2022-08-21T08:25:19;8.73;;;5.78;;
16460;SDS011;8341;42.048;24.650;2022-08-21T08:27:47;8.88;;;6.35;;
16460;SDS011;8341;42.048;24.650;2022-08-21T08:30:16;14.20;;;6.70;;
16460;SDS011;8341;42.048;24.650;2022-08-21T08:32:44;9.10;;;6.45;;
16460;SDS011;8341;42.048;24.650;2022-08-21T08:35:11;9.75;;;6.82;;
16460;SDS011;8341;42.048;24.650;2022-08-21T08:37:39;11.93;;;7.55;;
16460;SDS011;8341;42.048;24.650;2022-08-21T08:40:07;10.57;;;6.82;;
16460;SDS011;8341;42.048;24.650;2022-08-21T08:42:38;8.82;;;6.00;;
16460;SDS011;8341;42.048;24.650;2022-08-21T08:45:05;9.95;;;7.38;;
16460;SDS011;8341;42.048;24.650;2022-08-21T08:47:38;9.32;;;6.93;;
16460;SDS011;8341;42.048;24.650;2022-08-21T08:50:08;10.35;;;6.60;;
16460;SDS011;8341;42.048;24.650;2022-08-21T08:52:40;7.82;;;6.50;;
16460;SDS011;8341;42.048;24.650;2022-08-21T08:55:12;9.35;;;6.82;;
16460;SDS011;8341;42.048;24.650;2022-08-21T08:57:44;7.20;;;6.20;;
16460;SDS011;8341;42.048;24.650;2022-08-21T09:00:14;8.60;;;7.50;;
16460;SDS011;8341;42.048;24.650;2022-08-21T09:02:46;10.68;;;7.05;;
16460;SDS011;8341;42.048;24.650;2022-08-21T09:05:17;9.63;;;6.10;;
16460;SDS011;8341;42.048;24.650;2022-08-21T09:07:51;14.15;;;6.80;;
16460;SDS011;8341;42.048;24.650;2022-08-21T09:10:38;10.70;;;8.52;;
16460;SDS011;8341;42.048;24.650;2022-08-21T09:13:15;8.48;;;7.00;;
16460;SDS011;8341;42.048;24.650;2022-08-21T09:15:50;11.60;;;7.85;;
16460;SDS011;8341;42.048;24.650;2022-08-21T09:18:29;10.52;;;7.70;;
16460;SDS011;8341;42.048;24.650;2022-08-21T09:21:08;12.82;;;8.18;;
16460;SDS011;8341;42.048;24.650;2022-08-21T09:23:43;19.77;;;14.30;;
16460;SDS011;8341;42.048;24.650;2022-08-21T09:26:19;30.25;;;24.67;;
16460;SDS011;8341;42.048;24.650;2022-08-21T09:28:48;9.70;;;6.60;;
16460;SDS011;8341;42.048;24.650;2022-08-21T09:31:21;12.52;;;8.10;;
16460;SDS011;8341;42.048;24.650;2022-08-21T09:33:56;15.80;;;12.27;;
16460;SDS011;8341;42.048;24.650;2022-08-21T09:36:24;15.55;;;8.63;;
16460;SDS011;8341;42.048;24.650;2022-08-21T09:38:54;12.10;;;7.53;;
16460;SDS011;8341;42.048;24.650;2022-08-21T09:41:25;8.98;;;7.00;;
16460;SDS011;8341;42.048;24.650;2022-08-21T09:43:54;9.40;;;7.07;;
16460;SDS011;8341;42.048;24.650;2022-08-21T09:46:22;11.20;;;7.47;;
16460;SDS011;8341;42.048;24.650;2022-08-21T09:48:52;12.65;;;7.50;;
16460;SDS011;8341;42.048;24.650;2022-08-21T09:51:21;11.52;;;7.53;;
16460;SDS011;8341;42.048;24.650;2022-08-21T09:53:55;10.90;;;7.93;;
16460;SDS011;8341;42.048;24.650;2022-08-21T09:56:28;9.85;;;7.53;;
16460;SDS011;8341;42.048;24.650;2022-08-21T09:59:16;14.15;;;7.93;;
16460;SDS011;8341;42.048;24.650;2022-08-21T10:01:46;10.82;;;7.65;;
16460;SDS011;8341;42.048;24.650;2022-08-21T10:04:20;11.98;;;7.85;;
16460;SDS011;8341;42.048;24.650;2022-08-21T11:53:46;18.85;;;15.02;;
16460;SDS011;8341;42.048;24.650;2022-08-21T11:56:20;18.80;;;14.55;;
16460;SDS011;8341;42.048;24.650;2022-08-21T11:58:53;17.92;;;14.45;;
16460;SDS011;8341;42.048;24.650;2022-08-21T12:01:26;13.80;;;11.35;;
16460;SDS011;8341;42.048;24.650;2022-08-21T12:03:59;14.98;;;13.38;;
16460;SDS011;8341;42.048;24.650;2022-08-21T12:06:30;15.65;;;12.38;;
16460;SDS011;8341;42.048;24.650;2022-08-21T12:09:00;15.82;;;12.15;;
16460;SDS011;8341;42.048;24.650;2022-08-21T12:11:30;17.10;;;11.65;;
16460;SDS011;8341;42.048;24.650;2022-08-21T12:13:58;17.90;;;11.57;;
16460;SDS011;8341;42.048;24.650;2022-08-21T12:16:30;18.38;;;12.20;;
16460;SDS011;8341;42.048;24.650;2022-08-21T12:19:03;14.65;;;11.13;;
16460;SDS011;8341;42.048;24.650;2022-08-21T12:21:32;12.98;;;11.52;;
16460;SDS011;8341;42.048;24.650;2022-08-21T12:24:03;14.85;;;10.30;;
16460;SDS011;8341;42.048;24.650;2022-08-21T12:26:47;11.38;;;8.25;;
16460;SDS011;8341;42.048;24.650;2022-08-21T12:29:16;12.95;;;9.55;;
16460;SDS011;8341;42.048;24.650;2022-08-21T12:31:54;12.27;;;9.55;;
16460;SDS011;8341;42.048;24.650;2022-08-21T12:34:28;13.38;;;9.63;;
16460;SDS011;8341;42.048;24.650;2022-08-21T12:37:00;11.30;;;9.07;;
16460;SDS011;8341;42.048;24.650;2022-08-21T12:39:33;10.73;;;8.73;;
16460;SDS011;8341;42.048;24.650;2022-08-21T12:42:05;11.55;;;8.68;;
16460;SDS011;8341;42.048;24.650;2022-08-21T12:44:42;10.25;;;8.30;;
16460;SDS011;8341;42.048;24.650;2022-08-21T12:47:14;11.32;;;8.00;;
16460;SDS011;8341;42.048;24.650;2022-08-21T12:49:51;10.55;;;8.27;;
16460;SDS011;8341;42.048;24.650;2022-08-21T12:52:23;13.55;;;8.40;;
16460;SDS011;8341;42.048;24.650;2022-08-21T12:54:56;12.52;;;9.38;;
16460;SDS011;8341;42.048;24.650;2022-08-21T12:57:23;12.77;;;10.02;;
16460;SDS011;8341;42.048;24.650;2022-08-21T12:59:52;13.02;;;10.40;;
16460;SDS011;8341;42.048;24.650;2022-08-21T13:02:21;12.38;;;8.68;;
16460;SDS011;8341;42.048;24.650;2022-08-21T13:04:51;14.93;;;9.30;;
16460;SDS011;8341;42.048;24.650;2022-08-21T13:07:24;11.57;;;8.25;;
16460;SDS011;8341;42.048;24.650;2022-08-21T13:09:56;11.25;;;7.97;;
16460;SDS011;8341;42.048;24.650;2022-08-21T13:12:25;10.90;;;8.60;;
16460;SDS011;8341;42.048;24.650;2022-08-21T13:14:55;10.00;;;8.45;;
16460;SDS011;8341;42.048;24.650;2022-08-21T13:17:24;12.52;;;8.35;;
16460;SDS011;8341;42.048;24.650;2022-08-21T13:19:53;11.75;;;7.97;;
16460;SDS011;8341;42.048;24.650;2022-08-21T13:22:25;11.00;;;8.68;;
16460;SDS011;8341;42.048;24.650;2022-08-21T13:24:53;10.43;;;8.23;;
16460;SDS011;8341;42.048;24.650;2022-08-21T13:27:23;12.45;;;9.18;;
16460;SDS011;8341;42.048;24.650;2022-08-21T13:30:02;12.93;;;9.23;;
16460;SDS011;8341;42.048;24.650;2022-08-21T13:32:33;12.13;;;9.05;;
16460;SDS011;8341;42.048;24.650;2022-08-21T13:35:12;13.90;;;8.85;;
16460;SDS011;8341;42.048;24.650;2022-08-21T13:37:42;11.30;;;8.40;;
16460;SDS011;8341;42.048;24.650;2022-08-21T13:40:12;11.48;;;8.75;;
16460;SDS011;8341;42.048;24.650;2022-08-21T13:42:44;9.68;;;8.65;;
16460;SDS011;8341;42.048;24.650;2022-08-21T13:45:14;9.93;;;8.60;;
16460;SDS011;8341;42.048;24.650;2022-08-21T13:47:43;9.30;;;8.40;;
16460;SDS011;8341;42.048;24.650;2022-08-21T13:50:13;11.40;;;8.50;;
16460;SDS011;8341;42.048;24.650;2022-08-21T13:52:54;13.65;;;9.13;;
16460;SDS011;8341;42.048;24.650;2022-08-21T13:55:23;10.18;;;8.25;;
16460;SDS011;8341;42.048;24.650;2022-08-21T13:57:59;11.63;;;8.32;;
16460;SDS011;8341;42.048;24.650;2022-08-21T14:00:28;9.80;;;7.72;;
16460;SDS011;8341;42.048;24.650;2022-08-21T14:03:00;8.98;;;6.50;;
16460;SDS011;8341;42.048;24.650;2022-08-21T14:05:31;11.77;;;7.00;;
16460;SDS011;8341;42.048;24.650;2022-08-21T14:08:01;11.13;;;8.85;;
16460;SDS011;8341;42.048;24.650;2022-08-21T14:10:30;23.38;;;18.42;;
16460;SDS011;8341;42.048;24.650;2022-08-21T14:12:58;16.20;;;14.50;;
16460;SDS011;8341;42.048;24.650;2022-08-21T14:15:29;21.90;;;17.98;;
16460;SDS011;8341;42.048;24.650;2022-08-21T14:18:06;11.40;;;9.50;;
16460;SDS011;8341;42.048;24.650;2022-08-21T14:20:36;8.38;;;7.47;;
16460;SDS011;8341;42.048;24.650;2022-08-21T14:23:03;8.65;;;6.93;;
16460;SDS011;8341;42.048;24.650;2022-08-21T14:25:35;9.88;;;6.78;;
16460;SDS011;8341;42.048;24.650;2022-08-21T14:28:18;8.25;;;7.22;;
16460;SDS011;8341;42.048;24.650;2022-08-21T14:30:50;12.70;;;6.43;;
16460;SDS011;8341;42.048;24.650;2022-08-21T14:33:20;6.97;;;5.82;;
16460;SDS011;8341;42.048;24.650;2022-08-21T14:35:51;6.88;;;6.05;;
16460;SDS011;8341;42.048;24.650;2022-08-21T14:38:18;7.70;;;5.75;;
16460;SDS011;8341;42.048;24.650;2022-08-21T14:40:49;8.15;;;6.50;;
16460;SDS011;8341;42.048;24.650;2022-08-21T14:43:18;10.32;;;8.43;;
16460;SDS011;8341;42.048;24.650;2022-08-21T14:45:46;13.85;;;12.45;;
16460;SDS011;8341;42.048;24.650;2022-08-21T14:48:13;8.43;;;7.40;;
16460;SDS011;8341;42.048;24.650;2022-08-21T14:50:40;7.22;;;6.50;;
16460;SDS011;8341;42.048;24.650;2022-08-21T14:53:07;8.95;;;7.55;;
16460;SDS011;8341;42.048;24.650;2022-08-21T14:55:34;10.70;;;7.55;;
16460;SDS011;8341;42.048;24.650;2022-08-21T14:58:23;9.00;;;7.03;;
16460;SDS011;8341;42.048;24.650;2022-08-21T15:00:51;8.25;;;7.43;;
16460;SDS011;8341;42.048;24.650;2022-08-21T15:03:18;10.52;;;7.88;;
16460;SDS011;8341;42.048;24.650;2022-08-21T15:05:46;8.70;;;6.88;;
16460;SDS011;8341;42.048;24.650;2022-08-21T15:08:13;7.85;;;6.28;;
16460;SDS011;8341;42.048;24.650;2022-08-21T15:10:40;8.07;;;6.97;;
16460;SDS011;8341;42.048;24.650;2022-08-21T15:13:07;8.45;;;7.55;;
16460;SDS011;8341;42.048;24.650;2022-08-21T15:15:38;9.93;;;6.72;;
16460;SDS011;8341;42.048;24.650;2022-08-21T15:18:07;10.45;;;7.35;;
16460;SDS011;8341;42.048;24.650;2022-08-21T15:20:34;9.20;;;6.95;;
16460;SDS011;8341;42.048;24.650;2022-08-21T15:23:01;9.13;;;7.18;;
16460;SDS011;8341;42.048;24.650;2022-08-21T15:25:28;8.38;;;6.93;;
16460;SDS011;8341;42.048;24.650;2022-08-21T15:27:55;8.20;;;7.45;;
16460;SDS011;8341;42.048;24.650;2022-08-21T15:30:22;8.40;;;7.50;;
16460;SDS011;8341;42.048;24.650;2022-08-21T15:32:51;10.73;;;7.75;;
16460;SDS011;8341;42.048;24.650;2022-08-21T15:35:17;9.07;;;7.00;;
16460;SDS011;8341;42.048;24.650;2022-08-21T15:37:44;7.43;;;6.70;;
16460;SDS011;8341;42.048;24.650;2022-08-21T15:40:11;10.77;;;7.30;;
16460;SDS011;8341;42.048;24.650;2022-08-21T15:42:39;8.10;;;7.18;;
16460;SDS011;8341;42.048;24.650;2022-08-21T15:45:07;9.45;;;7.03;;
16460;SDS011;8341;42.048;24.650;2022-08-21T15:47:36;10.25;;;7.38;;
16460;SDS011;8341;42.048;24.650;2022-08-21T15:50:07;7.47;;;6.75;;
16460;SDS011;8341;42.048;24.650;2022-08-21T15:52:34;10.77;;;6.97;;
16460;SDS011;8341;42.048;24.650;2022-08-21T15:55:02;10.95;;;7.03;;
16460;SDS011;8341;42.048;24.650;2022-08-21T15:57:29;9.75;;;7.57;;
16460;SDS011;8341;42.048;24.650;2022-08-21T15:59:57;11.32;;;6.65;;
16460;SDS011;8341;42.048;24.650;2022-08-21T16:02:32;9.00;;;6.90;;
16460;SDS011;8341;42.048;24.650;2022-08-21T16:04:59;10.45;;;7.38;;
16460;SDS011;8341;42.048;24.650;2022-08-21T16:07:27;12.07;;;7.38;;
16460;SDS011;8341;42.048;24.650;2022-08-21T16:09:54;14.80;;;7.50;;
16460;SDS011;8341;42.048;24.650;2022-08-21T16:12:22;12.20;;;7.68;;
16460;SDS011;8341;42.048;24.650;2022-08-21T16:14:53;21.88;;;17.80;;
16460;SDS011;8341;42.048;24.650;2022-08-21T16:17:20;32.33;;;27.80;;
16460;SDS011;8341;42.048;24.650;2022-08-21T16:19:51;37.15;;;28.17;;
16460;SDS011;8341;42.048;24.650;2022-08-21T16:22:17;12.68;;;10.00;;
16460;SDS011;8341;42.048;24.650;2022-08-21T16:24:46;10.98;;;8.43;;
16460;SDS011;8341;42.048;24.650;2022-08-21T16:27:12;9.20;;;8.10;;
16460;SDS011;8341;42.048;24.650;2022-08-21T16:29:41;15.70;;;10.50;;
16460;SDS011;8341;42.048;24.650;2022-08-21T16:32:08;11.48;;;7.85;;